createdAt,value
2022-09-17T00:01:31.805Z,0.90
2022-09-17T00:04:05.529Z,1.52
2022-09-17T00:06:35.454Z,0.82
2022-09-17T00:09:06.468Z,0.57
2022-09-17T00:11:36.855Z,1.42
2022-09-17T00:14:07.156Z,2.28
2022-09-17T00:16:39.239Z,0.68
2022-09-17T00:19:10.795Z,2.42
2022-09-17T00:21:38.275Z,1.38
2022-09-17T00:24:07.342Z,1.10
2022-09-17T00:26:36.783Z,3.47
2022-09-17T00:29:05.976Z,1.33
2022-09-17T00:31:35.411Z,1.70
2022-09-17T00:34:05.312Z,1.15
2022-09-17T00:36:36.863Z,0.70
2022-09-17T00:39:06.603Z,2.00
2022-09-17T00:41:36.309Z,0.45
2022-09-17T00:44:41.283Z,2.40
2022-09-17T00:47:17.289Z,1.73
2022-09-17T00:49:46.393Z,2.55
2022-09-17T00:52:22.200Z,0.65
2022-09-17T00:54:56.807Z,1.83
2022-09-17T00:57:24.864Z,0.95
2022-09-17T00:59:52.824Z,2.88
2022-09-17T01:02:20.801Z,0.63
2022-09-17T01:04:48.922Z,3.00
2022-09-17T01:07:38.222Z,5.45
2022-09-17T01:11:04.498Z,0.98
2022-09-17T01:13:52.913Z,0.90
2022-09-17T01:16:32.359Z,1.10
2022-09-17T01:19:44.647Z,1.67
2022-09-17T01:22:34.434Z,0.98
2022-09-17T01:25:25.794Z,1.45
2022-09-17T01:28:25.209Z,1.80
2022-09-17T01:31:01.597Z,0.65
2022-09-17T01:33:39.901Z,3.95
2022-09-17T01:36:40.032Z,1.33
2022-09-17T01:39:20.755Z,0.38
2022-09-17T01:41:48.296Z,1.10
2022-09-17T01:44:26.064Z,0.05
2022-09-17T01:46:59.049Z,0.88
2022-09-17T01:49:28.413Z,0.35
2022-09-17T01:51:56.967Z,0.40
2022-09-17T01:54:38.034Z,1.60
2022-09-17T01:57:15.339Z,1.95
2022-09-17T01:59:55.561Z,0.43
2022-09-17T02:02:46.489Z,1.02
2022-09-17T02:05:46.356Z,0.45
2022-09-17T02:08:24.612Z,0.75
2022-09-17T02:11:14.616Z,1.05
2022-09-17T02:14:03.273Z,1.02
2022-09-17T02:16:34.758Z,0.88
2022-09-17T02:19:18.720Z,0.57
2022-09-17T02:21:48.332Z,1.02
2022-09-17T02:24:27.912Z,1.10
2022-09-17T02:27:12.016Z,0.20
2022-09-17T02:32:11.317Z,0.40
2022-09-17T02:34:39.649Z,1.83
2022-09-17T02:37:08.647Z,0.40
2022-09-17T02:39:36.657Z,0.43
2022-09-17T02:42:23.320Z,0.65
2022-09-17T02:44:59.516Z,0.95
2022-09-17T02:47:59.150Z,1.45
2022-09-17T02:51:06.956Z,0.60
2022-09-17T02:54:10.112Z,0.00
2022-09-17T02:56:57.269Z,0.57
2022-09-17T02:59:42.513Z,0.55
2022-09-17T03:02:33.537Z,0.35
2022-09-17T03:05:03.652Z,2.67
2022-09-17T03:07:32.717Z,3.47
2022-09-17T03:10:00.776Z,0.90
2022-09-17T03:12:28.453Z,0.25
2022-09-17T03:14:56.398Z,0.22
2022-09-17T03:17:23.900Z,1.77
2022-09-17T03:19:51.954Z,0.35
2022-09-17T03:22:20.142Z,2.10
2022-09-17T03:24:47.710Z,0.70
2022-09-17T03:27:15.219Z,1.27
2022-09-17T03:29:42.797Z,1.63
2022-09-17T03:32:11.451Z,0.75
2022-09-17T03:34:39.457Z,0.63
2022-09-17T03:37:06.984Z,0.43
2022-09-17T03:39:34.657Z,0.75
2022-09-17T03:42:02.552Z,1.08
2022-09-17T03:44:30.080Z,1.70
2022-09-17T03:46:58.152Z,2.22
2022-09-17T03:49:26.062Z,0.03
2022-09-17T03:51:54.108Z,3.30
2022-09-17T03:54:21.673Z,0.00
2022-09-17T03:56:49.141Z,0.35
2022-09-17T03:59:17.301Z,0.38
2022-09-17T04:01:45.316Z,0.17
2022-09-17T04:04:12.955Z,2.83
2022-09-17T04:06:40.458Z,14.07
2022-09-17T04:09:08.943Z,9.82
2022-09-17T04:11:36.518Z,10.88
2022-09-17T04:14:04.159Z,2.92
2022-09-17T04:16:31.735Z,0.95
2022-09-17T04:18:59.569Z,1.40
2022-09-17T04:21:27.265Z,2.47
2022-09-17T04:23:54.813Z,2.95
2022-09-17T04:26:22.691Z,0.50
2022-09-17T04:28:50.414Z,1.58
2022-09-17T04:31:18.052Z,1.35
2022-09-17T04:33:45.774Z,0.40
2022-09-17T04:36:13.234Z,2.58
2022-09-17T04:38:40.789Z,1.20
2022-09-17T04:41:08.987Z,0.35
2022-09-17T04:43:37.056Z,3.55
2022-09-17T04:46:05.142Z,3.88
2022-09-17T04:48:33.161Z,1.73
2022-09-17T04:51:00.626Z,5.18
2022-09-17T04:53:28.788Z,1.27
2022-09-17T04:55:56.293Z,0.43
2022-09-17T04:58:24.236Z,0.38
2022-09-17T05:00:52.269Z,13.63
2022-09-17T05:03:20.475Z,6.60
2022-09-17T05:05:48.531Z,6.07
2022-09-17T05:08:16.036Z,6.47
2022-09-17T05:10:43.490Z,2.67
2022-09-17T05:13:12.035Z,3.15
2022-09-17T05:15:39.635Z,4.20
2022-09-17T05:18:07.106Z,0.52
2022-09-17T05:20:34.622Z,0.73
2022-09-17T05:23:02.265Z,0.47
2022-09-17T05:25:29.920Z,0.05
2022-09-17T05:27:57.440Z,1.65
2022-09-17T05:30:25.912Z,1.83
2022-09-17T05:33:04.088Z,3.92
2022-09-17T05:35:32.469Z,1.65
2022-09-17T05:38:01.585Z,5.60
2022-09-17T05:40:30.790Z,0.65
2022-09-17T05:43:00.070Z,0.68
2022-09-17T05:45:28.121Z,1.83
2022-09-17T05:48:00.482Z,1.85
2022-09-17T05:50:29.557Z,0.60
2022-09-17T05:52:57.741Z,2.15
2022-09-17T05:55:25.529Z,1.88
2022-09-17T05:57:53.549Z,1.13
2022-09-17T06:00:21.262Z,0.60
2022-09-17T06:02:58.503Z,4.68
2022-09-17T06:05:26.674Z,0.35
2022-09-17T06:07:54.351Z,1.95
2022-09-17T06:10:22.372Z,2.53
2022-09-17T06:12:56.588Z,2.15
2022-09-17T06:15:24.815Z,0.50
2022-09-17T06:17:52.881Z,0.82
2022-09-17T06:20:21.275Z,0.80
2022-09-17T06:22:49.321Z,2.28
2022-09-17T06:25:17.270Z,0.80
2022-09-17T06:27:44.864Z,1.23
2022-09-17T06:30:12.985Z,1.13
2022-09-17T06:32:40.616Z,1.90
2022-09-17T06:35:08.650Z,2.63
2022-09-17T06:37:40.303Z,1.30
2022-09-17T06:40:09.166Z,0.13
2022-09-17T06:42:36.898Z,0.88
2022-09-17T06:45:09.314Z,2.95
2022-09-17T06:47:38.831Z,2.50
2022-09-17T06:50:07.530Z,1.50
2022-09-17T06:52:35.717Z,1.92
2022-09-17T06:55:03.437Z,1.25
2022-09-17T06:57:31.445Z,2.15
2022-09-17T06:59:59.371Z,0.60
2022-09-17T07:02:27.557Z,0.80
2022-09-17T07:04:55.438Z,0.82
2022-09-17T07:07:23.455Z,1.65
2022-09-17T07:09:50.994Z,1.50
2022-09-17T07:12:18.879Z,3.20
2022-09-17T07:14:47.676Z,3.00
2022-09-17T07:17:15.705Z,2.13
2022-09-17T07:19:43.648Z,1.40
2022-09-17T07:22:11.129Z,2.42
2022-09-17T07:24:38.739Z,2.28
2022-09-17T07:27:06.310Z,1.08
2022-09-17T07:29:33.799Z,0.85
2022-09-17T07:32:02.003Z,2.92
2022-09-17T07:34:29.906Z,3.20
2022-09-17T07:36:57.463Z,2.05
2022-09-17T07:39:25.077Z,2.42
2022-09-17T07:41:53.031Z,3.65
2022-09-17T07:44:22.218Z,1.50
2022-09-17T07:46:50.261Z,10.43
2022-09-17T07:49:18.215Z,2.33
2022-09-17T07:51:45.921Z,1.50
2022-09-17T07:54:13.643Z,1.75
2022-09-17T07:56:41.146Z,1.35
2022-09-17T07:59:09.618Z,0.75
2022-09-17T08:01:37.753Z,2.45
2022-09-17T08:04:06.191Z,0.57
2022-09-17T08:06:38.412Z,1.58
2022-09-17T08:09:07.332Z,1.38
2022-09-17T08:11:55.113Z,0.30
2022-09-17T08:14:27.014Z,4.45
2022-09-17T08:16:57.932Z,1.27
2022-09-17T08:19:28.241Z,1.60
2022-09-17T08:21:56.556Z,0.63
2022-09-17T08:24:24.488Z,0.75
2022-09-17T08:26:52.091Z,2.05
2022-09-17T08:29:19.764Z,0.65
2022-09-17T08:31:48.329Z,1.95
2022-09-17T08:34:16.405Z,0.32
2022-09-17T08:36:43.858Z,0.38
2022-09-17T08:39:12.279Z,0.43
2022-09-17T08:41:46.097Z,0.43
2022-09-17T08:44:30.808Z,0.28
2022-09-17T08:47:06.502Z,5.68
2022-09-17T08:49:35.448Z,0.57
2022-09-17T08:52:18.566Z,0.88
2022-09-17T08:54:53.059Z,0.93
2022-09-17T08:57:38.943Z,0.28
2022-09-17T09:00:16.800Z,0.35
2022-09-17T09:02:48.694Z,0.32
2022-09-17T09:05:30.348Z,0.32
2022-09-17T09:08:12.141Z,0.43
2022-09-17T09:10:55.473Z,0.20
2022-09-17T09:13:29.356Z,0.60
2022-09-17T09:16:04.624Z,1.55
2022-09-17T09:18:39.028Z,3.17
2022-09-17T09:21:21.760Z,3.72
2022-09-17T09:24:05.768Z,1.13
2022-09-17T09:29:37.294Z,0.88
2022-09-17T09:32:26.954Z,1.08
2022-09-17T09:34:56.710Z,1.42
2022-09-17T09:37:32.167Z,1.67
2022-09-17T09:40:28.858Z,1.52
2022-09-17T09:43:01.487Z,0.52
2022-09-17T09:45:44.338Z,1.42
2022-09-17T09:48:33.137Z,1.17
2022-09-17T09:51:10.096Z,1.42
2022-09-17T09:54:02.119Z,2.92
2022-09-17T09:56:55.389Z,1.98
2022-09-17T09:59:23.256Z,1.23
2022-09-17T10:01:51.259Z,2.00
2022-09-17T10:04:25.363Z,3.78
2022-09-17T10:06:55.409Z,3.95
2022-09-17T10:09:22.999Z,0.43
2022-09-17T10:12:16.254Z,1.10
2022-09-17T10:14:46.551Z,2.50
2022-09-17T10:17:21.678Z,1.85
2022-09-17T10:20:12.237Z,3.38
2022-09-17T10:22:42.719Z,1.77
2022-09-17T10:25:30.640Z,0.77
2022-09-17T10:28:01.736Z,1.27
2022-09-17T10:30:31.023Z,0.45
2022-09-17T10:33:17.780Z,1.02
2022-09-17T10:35:58.304Z,2.17
2022-09-17T10:38:57.333Z,1.38
2022-09-17T10:41:25.898Z,2.05
2022-09-17T10:43:53.746Z,2.80
2022-09-17T10:46:28.096Z,1.00
2022-09-17T10:49:12.483Z,0.88
2022-09-17T10:51:40.312Z,4.00
2022-09-17T10:54:16.652Z,1.77
2022-09-17T10:56:53.613Z,0.93
2022-09-17T10:59:45.944Z,1.23
2022-09-17T11:02:25.933Z,2.47
2022-09-17T11:05:16.695Z,1.65
2022-09-17T11:08:01.048Z,2.55
2022-09-17T11:10:36.980Z,1.98
2022-09-17T11:13:16.581Z,1.02
2022-09-17T11:16:11.692Z,4.75
2022-09-17T11:18:43.483Z,2.30
2022-09-17T11:21:20.532Z,1.13
2022-09-17T11:24:02.509Z,0.70
2022-09-17T11:26:39.246Z,0.85
2022-09-17T11:29:30.218Z,1.05
2022-09-17T11:32:01.414Z,0.95
2022-09-17T11:34:39.079Z,5.57
2022-09-17T11:37:20.618Z,1.48
2022-09-17T11:39:59.697Z,2.05
2022-09-17T11:42:51.163Z,1.17
2022-09-17T11:45:21.039Z,0.95
2022-09-17T11:47:57.495Z,1.02
2022-09-17T11:50:33.689Z,2.33
2022-09-17T11:53:03.940Z,0.95
2022-09-17T11:55:40.470Z,3.03
2022-09-17T11:58:26.854Z,0.98
2022-09-17T12:01:04.228Z,2.28
2022-09-17T12:03:41.542Z,1.17
2022-09-17T12:06:14.816Z,0.90
2022-09-17T12:09:03.588Z,1.17
2022-09-17T12:11:38.281Z,1.85
2022-09-17T12:14:16.602Z,0.98
2022-09-17T12:16:48.675Z,1.17
2022-09-17T12:19:46.392Z,0.80
2022-09-17T12:22:26.946Z,1.08
2022-09-17T12:24:55.577Z,0.68
2022-09-17T12:27:35.099Z,1.52
2022-09-17T12:30:23.037Z,1.63
2022-09-17T12:32:56.985Z,1.25
2022-09-17T12:36:05.819Z,1.55
2022-09-17T12:38:53.669Z,1.55
2022-09-17T12:41:46.362Z,1.38
2022-09-17T12:44:54.998Z,0.85
2022-09-17T12:47:22.862Z,1.65
2022-09-17T12:50:02.221Z,1.75
2022-09-17T12:53:12.253Z,1.48
2022-09-17T12:55:48.047Z,1.50
2022-09-17T12:59:01.070Z,1.23
2022-09-17T13:01:37.127Z,1.30
2022-09-17T13:04:59.485Z,2.08
2022-09-17T13:07:34.566Z,1.83
2022-09-17T13:10:17.261Z,2.53
2022-09-17T13:12:53.368Z,1.08
2022-09-17T13:15:50.526Z,1.92
2022-09-17T13:18:31.634Z,1.73
2022-09-17T13:21:08.121Z,1.05
2022-09-17T13:23:45.883Z,1.33
2022-09-17T13:26:19.189Z,1.38
2022-09-17T13:28:50.002Z,1.15
2022-09-17T13:31:36.103Z,2.17
2022-09-17T13:34:04.707Z,1.33
2022-09-17T13:36:40.343Z,1.25
2022-09-17T13:39:34.068Z,0.82
2022-09-17T13:42:08.171Z,0.57
2022-09-17T13:44:40.105Z,0.98
2022-09-17T13:47:17.782Z,1.60
2022-09-17T13:49:51.940Z,2.03
2022-09-17T13:52:37.236Z,1.48
2022-09-17T13:55:06.819Z,1.10
2022-09-17T13:57:50.686Z,0.88
2022-09-17T14:00:47.601Z,1.17
2022-09-17T14:03:31.265Z,0.65
2022-09-17T14:06:05.545Z,1.05
2022-09-17T14:08:46.646Z,1.35
2022-09-17T14:11:34.446Z,1.17
2022-09-17T14:14:04.755Z,2.97
2022-09-17T14:16:50.390Z,0.60
2022-09-17T14:19:24.282Z,0.43
2022-09-17T14:21:57.541Z,2.50
2022-09-17T14:27:13.868Z,1.80
2022-09-17T14:30:00.287Z,1.30
2022-09-17T14:32:42.415Z,0.80
2022-09-17T14:35:38.896Z,0.82
2022-09-17T14:38:15.272Z,0.57
2022-09-17T14:40:46.306Z,0.60
2022-09-17T14:43:54.753Z,0.25
2022-09-17T14:46:30.470Z,0.98
2022-09-17T14:49:24.442Z,0.50
2022-09-17T14:51:53.880Z,1.50
2022-09-17T14:54:26.594Z,1.27
2022-09-17T14:56:58.916Z,0.65
2022-09-17T14:59:43.804Z,1.15
2022-09-17T15:02:30.451Z,0.77
2022-09-17T15:04:58.883Z,1.13
2022-09-17T15:07:27.037Z,1.20
2022-09-17T15:10:06.019Z,1.42
2022-09-17T15:12:33.725Z,1.40
2022-09-17T15:15:01.506Z,1.15
2022-09-17T15:17:31.088Z,1.35
2022-09-17T15:19:59.475Z,1.42
2022-09-17T15:22:29.124Z,1.35
2022-09-17T15:25:04.277Z,2.50
2022-09-17T15:27:35.831Z,0.77
2022-09-17T15:30:09.842Z,0.93
2022-09-17T15:32:38.815Z,3.75
2022-09-17T15:35:15.811Z,1.65
2022-09-17T15:37:46.681Z,2.15
2022-09-17T15:40:27.783Z,1.15
2022-09-17T15:43:03.227Z,1.35
2022-09-17T15:45:39.215Z,1.25
2022-09-17T15:48:10.933Z,2.33
2022-09-17T15:50:53.149Z,1.13
2022-09-17T15:53:26.678Z,1.17
2022-09-17T15:56:13.243Z,1.98
2022-09-17T15:58:46.821Z,1.10
2022-09-17T16:03:42.134Z,1.40
2022-09-17T16:06:18.639Z,1.55
2022-09-17T16:08:47.720Z,2.38
2022-09-17T16:11:21.678Z,3.67
2022-09-17T16:13:51.029Z,1.58
2022-09-17T16:16:32.133Z,1.10
2022-09-17T16:19:00.241Z,1.35
2022-09-17T16:21:29.141Z,3.42
2022-09-17T16:23:58.165Z,1.20
2022-09-17T16:26:29.916Z,2.15
2022-09-17T16:29:06.296Z,1.48
2022-09-17T16:31:34.443Z,2.30
2022-09-17T16:34:02.096Z,7.03
2022-09-17T16:36:32.001Z,2.50
2022-09-17T16:39:01.156Z,4.53
2022-09-17T16:41:28.623Z,2.30
2022-09-17T16:43:56.227Z,4.50
2022-09-17T16:46:23.743Z,4.53
2022-09-17T16:48:51.323Z,3.15
2022-09-17T16:51:19.643Z,2.08
2022-09-17T16:53:47.255Z,1.70
2022-09-17T16:56:15.714Z,4.53
2022-09-17T16:58:43.526Z,1.63
2022-09-17T17:01:14.587Z,1.77
2022-09-17T17:03:42.668Z,1.63
2022-09-17T17:06:20.806Z,1.92
2022-09-17T17:08:49.391Z,4.35
2022-09-17T17:11:17.360Z,3.75
2022-09-17T17:13:45.462Z,3.13
2022-09-17T17:16:15.415Z,3.40
2022-09-17T17:18:44.194Z,2.88
2022-09-17T17:21:14.044Z,6.30
2022-09-17T17:23:43.815Z,3.00
2022-09-17T17:26:11.618Z,4.30
2022-09-17T17:28:39.577Z,2.85
2022-09-17T17:31:07.066Z,2.85
2022-09-17T17:33:35.612Z,4.03
2022-09-17T17:36:08.138Z,3.47
2022-09-17T17:38:36.887Z,4.83
2022-09-17T17:41:13.366Z,7.35
2022-09-17T17:43:42.223Z,1.98
2022-09-17T17:46:11.616Z,2.10
2022-09-17T17:48:39.531Z,4.93
2022-09-17T17:51:09.015Z,8.10
2022-09-17T17:53:37.209Z,3.97
2022-09-17T17:56:08.007Z,2.40
2022-09-17T17:58:36.631Z,3.95
2022-09-17T18:01:16.374Z,4.55
2022-09-17T18:03:44.559Z,2.33
2022-09-17T18:06:12.863Z,8.93
2022-09-17T18:08:43.427Z,2.40
2022-09-17T18:11:12.397Z,2.90
2022-09-17T18:13:40.405Z,3.28
2022-09-17T18:16:10.685Z,3.45
2022-09-17T18:18:44.850Z,3.28
2022-09-17T18:21:16.270Z,2.35
2022-09-17T18:23:44.847Z,3.25
2022-09-17T18:26:14.897Z,4.00
2022-09-17T18:28:42.597Z,3.92
2022-09-17T18:31:27.979Z,7.38
2022-09-17T18:34:00.844Z,2.75
2022-09-17T18:36:30.526Z,3.40
2022-09-17T18:39:32.327Z,2.53
2022-09-17T18:41:50.814Z,5.85
2022-09-17T18:44:21.808Z,3.97
2022-09-17T18:46:51.238Z,3.65
2022-09-17T18:49:19.310Z,6.32
2022-09-17T18:51:47.218Z,8.02
2022-09-17T18:54:15.267Z,3.60
2022-09-17T18:56:43.415Z,3.60
2022-09-17T18:59:11.164Z,4.97
2022-09-17T19:01:39.769Z,4.00
2022-09-17T19:04:07.846Z,4.53
2022-09-17T19:06:36.454Z,5.35
2022-09-17T19:09:05.106Z,4.15
2022-09-17T19:11:35.640Z,6.30
2022-09-17T19:14:03.356Z,6.43
2022-09-17T19:16:31.178Z,4.75
2022-09-17T19:18:58.699Z,6.80
2022-09-17T19:21:26.749Z,10.02
2022-09-17T19:23:54.642Z,10.55
2022-09-17T19:26:25.395Z,7.68
2022-09-17T19:28:54.587Z,6.65
2022-09-17T19:31:22.495Z,8.23
2022-09-17T19:33:51.719Z,7.97
2022-09-17T19:36:22.724Z,7.28
2022-09-17T19:38:50.338Z,9.80
2022-09-17T19:41:20.372Z,10.32
2022-09-17T19:43:54.228Z,11.32
2022-09-17T19:48:54.630Z,7.13
2022-09-17T19:51:24.576Z,7.13
2022-09-17T19:53:52.899Z,7.15
2022-09-17T19:56:23.306Z,7.85
2022-09-17T19:58:51.945Z,7.63
2022-09-17T20:01:20.258Z,7.75
2022-09-17T20:03:48.555Z,8.05
2022-09-17T20:06:18.073Z,6.00
2022-09-17T20:08:51.647Z,5.88
2022-09-17T20:11:21.544Z,5.55
2022-09-17T20:13:49.570Z,7.72
2022-09-17T20:16:20.167Z,7.43
2022-09-17T20:18:49.233Z,6.78
2022-09-17T20:21:20.502Z,5.97
2022-09-17T20:23:48.423Z,4.82
2022-09-17T20:26:16.765Z,7.63
2022-09-17T20:28:44.853Z,5.07
2022-09-17T20:31:15.199Z,5.40
2022-09-17T20:33:43.596Z,7.43
2022-09-17T20:36:19.305Z,7.10
2022-09-17T20:41:37.931Z,4.85
2022-09-17T20:44:06.919Z,11.93
2022-09-17T20:46:35.010Z,7.82
2022-09-17T20:49:03.214Z,5.85
2022-09-17T20:51:33.361Z,6.97
2022-09-17T20:54:01.832Z,6.00
2022-09-17T20:56:33.220Z,5.72
2022-09-17T20:59:14.456Z,7.07
2022-09-17T21:01:45.613Z,7.53
2022-09-17T21:04:18.982Z,9.45
2022-09-17T21:06:48.020Z,6.88
2022-09-17T21:09:16.721Z,7.47
2022-09-17T21:11:46.359Z,5.68
2022-09-17T21:14:15.936Z,5.90
2022-09-17T21:16:44.800Z,4.60
2022-09-17T21:19:16.267Z,6.13
2022-09-17T21:21:44.684Z,8.43
2022-09-17T21:24:12.424Z,9.27
2022-09-17T21:26:40.102Z,6.28
2022-09-17T21:29:08.195Z,9.10
2022-09-17T21:31:37.427Z,4.90
2022-09-17T21:34:07.801Z,5.20
2022-09-17T21:36:37.321Z,5.40
2022-09-17T21:39:09.665Z,3.53
2022-09-17T21:41:41.597Z,4.47
2022-09-17T21:44:11.835Z,4.23
2022-09-17T21:46:41.876Z,3.50
2022-09-17T21:49:10.296Z,3.28
2022-09-17T21:51:39.549Z,3.97
2022-09-17T21:54:12.533Z,3.70
2022-09-17T21:56:40.772Z,3.55
2022-09-17T21:59:11.175Z,3.63
2022-09-17T22:01:41.391Z,2.95
2022-09-17T22:04:12.588Z,5.15
2022-09-17T22:06:41.636Z,4.97
2022-09-17T22:09:15.095Z,3.03
2022-09-17T22:11:42.635Z,3.85
2022-09-17T22:14:13.115Z,3.70
2022-09-17T22:16:43.861Z,3.22
2022-09-17T22:19:14.973Z,5.47
2022-09-17T22:21:47.265Z,4.97
2022-09-17T22:24:16.783Z,3.50
2022-09-17T22:26:47.581Z,6.05
2022-09-17T22:29:19.297Z,4.68
2022-09-17T22:31:47.499Z,5.47
2022-09-17T22:34:18.465Z,4.20
2022-09-17T22:36:47.027Z,5.13
2022-09-17T22:39:14.631Z,6.25
2022-09-17T22:41:45.367Z,5.88
2022-09-17T22:44:18.615Z,7.22
2022-09-17T22:46:48.457Z,4.30
2022-09-17T22:49:16.701Z,4.38
2022-09-17T22:51:47.138Z,7.00
2022-09-17T22:54:16.861Z,3.38
2022-09-17T22:56:45.111Z,3.25
2022-09-17T22:59:13.067Z,2.65
2022-09-17T23:01:41.352Z,2.75
2022-09-17T23:04:09.685Z,1.95
2022-09-17T23:06:39.359Z,2.83
2022-09-17T23:09:07.392Z,2.17
2022-09-17T23:11:38.819Z,2.38
2022-09-17T23:14:09.603Z,2.50
2022-09-17T23:16:39.870Z,4.63
2022-09-17T23:19:08.349Z,2.17
2022-09-17T23:21:36.894Z,2.63
2022-09-17T23:24:04.556Z,2.55
2022-09-17T23:26:32.073Z,2.33
2022-09-17T23:29:05.019Z,3.33
2022-09-17T23:31:35.170Z,4.97
2022-09-17T23:34:04.910Z,6.90
2022-09-17T23:36:38.327Z,5.45
2022-09-17T23:39:07.642Z,4.75
2022-09-17T23:41:38.823Z,7.25
2022-09-17T23:44:14.452Z,3.53
2022-09-17T23:46:44.291Z,4.82
2022-09-17T23:49:13.636Z,5.63
2022-09-17T23:51:42.177Z,6.15
2022-09-17T23:54:10.775Z,3.63
2022-09-17T23:56:38.734Z,5.30
2022-09-17T23:59:07.439Z,6.30
